Time;durP1;ratioP1;P1;durP2;ratioP2;P2;SDS_P1;SDS_P2;PMS_P1;PMS_P2;Temp;Humidity;BMP_temperature;BMP_pressure;BME280_temperature;BME280_humidity;BME280_pressure;Samples;Min_cycle;Max_cycle;Signal;HPM_P1;HPM_P2
2022/01/30 00:02:01;;;;;;;;;6.25;6.25;;;;;;;;5092223;27;45474;-65
2022/01/30 00:04:27;;;;;;;;;5.00;5.00;;;;;;;;5087734;27;45471;-65
2022/01/30 00:06:52;;;;;;;;;7.50;7.50;;;;;;;;5075124;27;45384;-64
2022/01/30 00:09:20;;;;;;;;;4.25;4.25;;;;;;;;5095532;27;45768;-63
2022/01/30 00:11:50;;;;;;;;;5.75;3.00;;;;;;;;5076816;27;45454;-64
2022/01/30 00:14:18;;;;;;;;;4.75;4.75;;;;;;;;5093888;27;45405;-63
2022/01/30 00:16:43;;;;;;;;;6.25;5.25;;;;;;;;5073496;27;45705;-64
2022/01/30 00:21:42;;;;;;;;;4.75;4.75;;;;;;;;5092136;27;45455;-63
2022/01/30 00:24:13;;;;;;;;;6.00;6.00;;;;;;;;5097814;27;45513;-63
2022/01/30 00:26:40;;;;;;;;;5.00;5.00;;;;;;;;5071210;27;45336;-62
2022/01/30 00:29:05;;;;;;;;;6.25;6.25;;;;;;;;5073422;27;46698;-63
2022/01/30 00:31:32;;;;;;;;;6.00;6.00;;;;;;;;5086328;27;45312;-63
2022/01/30 00:33:57;;;;;;;;;6.25;6.25;;;;;;;;5092814;27;45486;-63
2022/01/30 00:36:22;;;;;;;;;6.00;5.00;;;;;;;;5076106;27;45296;-63
2022/01/30 00:38:48;;;;;;;;;7.75;7.75;;;;;;;;5080776;27;47279;-62
2022/01/30 00:41:13;;;;;;;;;9.00;5.00;;;;;;;;5087650;27;45316;-64
2022/01/30 00:43:38;;;;;;;;;4.00;4.00;;;;;;;;5074688;27;45809;-63
2022/01/30 00:46:03;;;;;;;;;7.00;4.25;;;;;;;;5091902;27;45520;-63
2022/01/30 00:48:29;;;;;;;;;7.25;6.00;;;;;;;;5074148;27;47404;-64
2022/01/30 00:50:54;;;;;;;;;5.25;5.00;;;;;;;;5083737;27;45432;-63
2022/01/30 00:53:19;;;;;;;;;4.50;4.50;;;;;;;;5083559;27;45467;-64
2022/01/30 00:55:45;;;;;;;;;7.00;7.00;;;;;;;;5090348;27;45363;-64
2022/01/30 00:58:10;;;;;;;;;7.25;5.50;;;;;;;;5072930;27;47471;-64
2022/01/30 01:00:35;;;;;;;;;5.75;5.00;;;;;;;;5091036;27;45455;-64
2022/01/30 01:03:01;;;;;;;;;7.50;5.75;;;;;;;;5091898;27;45951;-62
2022/01/30 01:05:27;;;;;;;;;6.00;6.00;;;;;;;;5091168;27;45310;-64
2022/01/30 01:07:54;;;;;;;;;10.00;6.50;;;;;;;;5071685;27;47768;-65
2022/01/30 01:23:24;;;;;;;;;5.00;5.00;;;;;;;;5084243;27;45518;-62
2022/01/30 01:23:48;;;;;;;;;5.75;5.75;;;;;;;;5093148;27;45391;-61
2022/01/30 01:26:14;;;;;;;;;9.00;7.25;;;;;;;;5090760;27;45484;-63
2022/01/30 01:28:39;;;;;;;;;4.25;4.00;;;;;;;;5091839;27;45476;-64
2022/01/30 01:31:05;;;;;;;;;9.50;6.50;;;;;;;;5092112;27;45754;-64
2022/01/30 01:33:55;;;;;;;;;8.00;4.00;;;;;;;;5092686;27;45381;-64
2022/01/30 01:36:18;;;;;;;;;9.25;9.25;;;;;;;;5084106;27;45359;-64
2022/01/30 01:38:43;;;;;;;;;9.00;7.50;;;;;;;;5071388;27;47720;-64
2022/01/30 01:41:09;;;;;;;;;4.50;4.00;;;;;;;;5090901;27;45518;-64
2022/01/30 01:43:35;;;;;;;;;8.75;8.75;;;;;;;;5089388;27;48333;-64
2022/01/30 01:46:01;;;;;;;;;9.00;9.00;;;;;;;;5091934;27;45425;-63
2022/01/30 01:48:26;;;;;;;;;9.00;7.50;;;;;;;;5093097;27;45393;-63
2022/01/30 01:51:05;;;;;;;;;10.75;9.75;;;;;;;;5087795;27;45490;-63
2022/01/30 01:53:30;;;;;;;;;9.00;9.00;;;;;;;;5056527;27;45623;-63
2022/01/30 01:55:56;;;;;;;;;9.00;9.00;;;;;;;;5089598;27;45725;-66
2022/01/30 01:58:25;;;;;;;;;11.00;8.50;;;;;;;;5073667;27;48464;-63
2022/01/30 02:00:50;;;;;;;;;10.00;9.00;;;;;;;;5090655;27;45411;-63
2022/01/30 02:03:17;;;;;;;;;2.00;0.25;;;;;;;;5093838;27;45876;-63
2022/01/30 02:05:47;;;;;;;;;8.50;6.25;;;;;;;;5092279;27;45696;-63
2022/01/30 02:11:05;;;;;;;;;10.25;9.75;;;;;;;;5082913;27;45488;-63
2022/01/30 02:24:37;;;;;;;;;11.75;11.75;;;;;;;;5071443;28;45477;-64
2022/01/30 02:27:03;;;;;;;;;11.25;9.75;;;;;;;;5077175;27;45742;-64
2022/01/30 02:29:29;;;;;;;;;12.75;11.75;;;;;;;;5065696;27;46246;-62
2022/01/30 02:31:57;;;;;;;;;10.25;10.25;;;;;;;;5068237;28;45447;-63
2022/01/30 02:34:26;;;;;;;;;9.00;9.00;;;;;;;;5073568;28;45575;-62
2022/01/30 02:36:52;;;;;;;;;12.00;10.00;;;;;;;;5056291;28;45510;-64
2022/01/30 02:39:18;;;;;;;;;9.25;9.25;;;;;;;;5076273;28;45882;-62
2022/01/30 02:41:44;;;;;;;;;9.75;9.75;;;;;;;;5075054;28;45372;-63
2022/01/30 02:44:18;;;;;;;;;13.75;11.50;;;;;;;;5073641;27;45531;-63
2022/01/30 02:46:49;;;;;;;;;10.50;9.25;;;;;;;;5072986;28;45404;-63
2022/01/30 02:51:50;;;;;;;;;10.50;7.50;;;;;;;;5058649;28;45499;-65
2022/01/30 02:54:15;;;;;;;;;9.25;7.25;;;;;;;;5057845;28;45430;-63
2022/01/30 02:56:41;;;;;;;;;12.50;12.50;;;;;;;;5074527;28;45428;-63
2022/01/30 02:59:06;;;;;;;;;11.00;8.50;;;;;;;;5073087;27;45965;-63
2022/01/30 03:01:32;;;;;;;;;10.75;10.00;;;;;;;;5074070;28;45494;-63
2022/01/30 03:03:58;;;;;;;;;11.00;11.00;;;;;;;;5074680;28;45386;-63
2022/01/30 03:06:24;;;;;;;;;13.00;10.75;;;;;;;;5057078;28;45372;-63
2022/01/30 03:08:49;;;;;;;;;12.00;11.50;;;;;;;;5075397;28;46205;-63
2022/01/30 03:11:14;;;;;;;;;11.25;8.25;;;;;;;;5074241;28;45719;-63
2022/01/30 03:13:39;;;;;;;;;11.00;10.00;;;;;;;;5074627;28;45500;-63
2022/01/30 03:16:04;;;;;;;;;11.50;10.25;;;;;;;;5073065;28;45421;-63
2022/01/30 03:18:31;;;;;;;;;11.00;11.00;;;;;;;;5073344;28;45500;-64
2022/01/30 03:20:56;;;;;;;;;14.50;12.00;;;;;;;;5061001;27;46299;-63
2022/01/30 03:23:21;;;;;;;;;9.75;9.00;;;;;;;;5094782;27;45490;-62
2022/01/30 03:25:53;;;;;;;;;14.50;10.00;;;;;;;;5094141;27;46031;-63
2022/01/30 03:28:18;;;;;;;;;10.25;10.25;;;;;;;;5077045;27;46739;-63
2022/01/30 03:30:44;;;;;;;;;8.50;7.50;;;;;;;;5093460;27;45582;-63
2022/01/30 03:33:10;;;;;;;;;11.00;9.00;;;;;;;;5073488;27;45568;-64
2022/01/30 03:35:35;;;;;;;;;12.25;10.75;;;;;;;;5076069;27;45392;-63
2022/01/30 03:38:00;;;;;;;;;10.75;9.00;;;;;;;;5074835;27;47712;-63
2022/01/30 03:40:25;;;;;;;;;12.75;10.50;;;;;;;;5093099;27;46052;-63
2022/01/30 03:42:50;;;;;;;;;13.00;10.50;;;;;;;;5094174;27;45487;-63
2022/01/30 03:45:16;;;;;;;;;9.25;8.75;;;;;;;;5076257;27;45641;-63
2022/01/30 03:47:41;;;;;;;;;12.25;9.75;;;;;;;;5074102;27;46598;-62
2022/01/30 03:50:06;;;;;;;;;11.75;10.00;;;;;;;;5076076;27;45740;-64
2022/01/30 03:52:32;;;;;;;;;11.00;9.75;;;;;;;;5094595;27;45662;-65
2022/01/30 03:54:57;;;;;;;;;11.50;9.75;;;;;;;;5094866;27;45448;-63
2022/01/30 03:57:22;;;;;;;;;10.00;8.50;;;;;;;;5076651;27;48503;-63
2022/01/30 03:59:47;;;;;;;;;14.00;10.00;;;;;;;;5095386;27;45758;-63
2022/01/30 04:02:12;;;;;;;;;13.75;10.50;;;;;;;;5094115;27;45354;-64
2022/01/30 04:04:38;;;;;;;;;11.25;9.00;;;;;;;;5093502;27;45502;-63
2022/01/30 04:07:03;;;;;;;;;10.00;10.00;;;;;;;;5092459;27;45633;-63
2022/01/30 04:09:28;;;;;;;;;7.50;5.50;;;;;;;;5093058;27;45478;-63
2022/01/30 04:11:54;;;;;;;;;7.75;7.75;;;;;;;;5096262;27;45151;-63
2022/01/30 04:14:20;;;;;;;;;9.75;8.75;;;;;;;;5074472;27;45491;-62
2022/01/30 04:16:45;;;;;;;;;11.00;9.25;;;;;;;;5074427;27;48668;-63
2022/01/30 04:19:11;;;;;;;;;9.25;7.25;;;;;;;;5093096;27;45532;-64
2022/01/30 04:21:36;;;;;;;;;11.00;9.50;;;;;;;;5092639;27;45514;-64
2022/01/30 04:24:02;;;;;;;;;12.00;11.00;;;;;;;;5076858;27;45471;-62
2022/01/30 04:26:27;;;;;;;;;9.50;8.25;;;;;;;;5092887;27;45723;-63
2022/01/30 04:28:52;;;;;;;;;7.25;4.25;;;;;;;;5074617;27;45305;-64
2022/01/30 04:31:17;;;;;;;;;10.50;6.50;;;;;;;;5075224;27;45358;-65
2022/01/30 04:33:43;;;;;;;;;6.00;4.00;;;;;;;;5074737;27;45422;-64
2022/01/30 04:36:12;;;;;;;;;7.00;4.25;;;;;;;;5095727;27;46238;-64
2022/01/30 04:39:35;;;;;;;;;3.00;3.00;;;;;;;;5093205;27;45483;-64
2022/01/30 04:52:20;;;;;;;;;4.75;3.00;;;;;;;;5080142;27;45482;-63
2022/01/30 04:57:37;;;;;;;;;4.50;3.50;;;;;;;;5094190;27;45744;-64
2022/01/30 05:00:20;;;;;;;;;3.00;2.00;;;;;;;;5059199;28;45455;-63
2022/01/30 05:07:50;;;;;;;;;4.50;4.00;;;;;;;;5093142;27;46727;-64
2022/01/30 05:10:16;;;;;;;;;4.00;3.00;;;;;;;;5093109;27;45552;-63
2022/01/30 05:12:50;;;;;;;;;2.00;2.00;;;;;;;;5091448;27;45365;-63
2022/01/30 05:15:17;;;;;;;;;4.75;3.75;;;;;;;;5091355;27;45432;-63
2022/01/30 05:17:43;;;;;;;;;4.25;2.00;;;;;;;;5073565;27;46518;-63
2022/01/30 05:20:09;;;;;;;;;3.25;2.00;;;;;;;;5092087;27;45348;-63
2022/01/30 05:22:34;;;;;;;;;5.50;3.00;;;;;;;;5091313;27;45538;-63
2022/01/30 05:24:59;;;;;;;;;2.00;2.00;;;;;;;;5092319;27;45403;-63
2022/01/30 05:27:25;;;;;;;;;2.25;2.25;;;;;;;;5092273;27;45304;-64
2022/01/30 05:29:50;;;;;;;;;3.00;2.00;;;;;;;;5094217;27;45213;-64
2022/01/30 05:32:15;;;;;;;;;2.00;2.00;;;;;;;;5091446;27;45503;-64
2022/01/30 05:34:41;;;;;;;;;4.00;3.00;;;;;;;;5072805;27;45466;-63
2022/01/30 05:37:08;;;;;;;;;4.00;1.50;;;;;;;;5090652;27;45416;-63
2022/01/30 05:39:37;;;;;;;;;2.25;1.00;;;;;;;;5072493;27;45572;-63
2022/01/30 05:42:02;;;;;;;;;6.50;4.50;;;;;;;;5094609;27;45301;-63
2022/01/30 05:44:42;;;;;;;;;5.00;2.00;;;;;;;;5073489;27;45443;-63
2022/01/30 05:47:12;;;;;;;;;3.75;3.00;;;;;;;;5093214;27;45850;-63
2022/01/30 05:49:38;;;;;;;;;4.50;4.25;;;;;;;;5093049;27;45405;-63
2022/01/30 05:52:04;;;;;;;;;3.00;2.00;;;;;;;;5093404;27;45515;-63
2022/01/30 05:54:29;;;;;;;;;2.00;2.00;;;;;;;;5077627;27;45441;-63
2022/01/30 05:56:54;;;;;;;;;5.50;5.00;;;;;;;;5098145;27;45389;-63
2022/01/30 05:59:19;;;;;;;;;4.75;2.00;;;;;;;;5095965;27;45483;-63
2022/01/30 06:01:44;;;;;;;;;2.00;2.00;;;;;;;;5096056;27;45381;-64
2022/01/30 06:04:10;;;;;;;;;2.75;2.75;;;;;;;;5095427;27;44831;-62
2022/01/30 06:06:35;;;;;;;;;4.00;3.00;;;;;;;;5077007;27;46403;-63
2022/01/30 06:11:57;;;;;;;;;5.00;2.75;;;;;;;;5054878;28;45513;-63
2022/01/30 06:14:23;;;;;;;;;4.25;3.00;;;;;;;;5054184;28;46093;-63
2022/01/30 06:16:49;;;;;;;;;2.50;2.00;;;;;;;;5053937;28;45885;-63
2022/01/30 06:19:14;;;;;;;;;9.00;2.25;;;;;;;;5054198;28;45930;-62
2022/01/30 06:21:40;;;;;;;;;6.25;5.00;;;;;;;;5053567;28;45513;-62
2022/01/30 06:24:05;;;;;;;;;3.50;3.25;;;;;;;;5038125;28;45476;-63
2022/01/30 06:26:30;;;;;;;;;3.25;3.25;;;;;;;;5054060;28;45508;-63
2022/01/30 06:28:57;;;;;;;;;3.25;2.00;;;;;;;;5036227;28;45587;-63
2022/01/30 06:31:23;;;;;;;;;1.25;1.25;;;;;;;;5053494;28;45565;-64
2022/01/30 06:33:48;;;;;;;;;2.00;2.00;;;;;;;;5052156;28;45572;-64
2022/01/30 06:36:14;;;;;;;;;2.00;2.00;;;;;;;;5053550;28;45994;-63
2022/01/30 06:38:39;;;;;;;;;2.50;2.50;;;;;;;;5035780;28;46557;-64
2022/01/30 06:41:04;;;;;;;;;1.00;1.00;;;;;;;;5053966;28;47483;-63
2022/01/30 06:43:29;;;;;;;;;2.00;2.00;;;;;;;;5054120;28;45393;-63
2022/01/30 06:45:56;;;;;;;;;2.25;1.75;;;;;;;;5035505;28;46349;-63
2022/01/30 06:48:21;;;;;;;;;5.25;3.00;;;;;;;;5038013;27;46011;-64
2022/01/30 06:50:46;;;;;;;;;2.00;2.00;;;;;;;;5091115;27;45452;-64
2022/01/30 06:53:12;;;;;;;;;4.00;3.25;;;;;;;;5087848;27;45452;-64
2022/01/30 06:55:42;;;;;;;;;4.00;3.00;;;;;;;;5094229;27;46650;-63
2022/01/30 06:58:07;;;;;;;;;3.25;2.25;;;;;;;;5075107;27;46469;-64
2022/01/30 07:00:32;;;;;;;;;2.75;2.00;;;;;;;;5076532;27;45594;-64
2022/01/30 07:02:58;;;;;;;;;4.50;2.00;;;;;;;;5097521;27;45239;-63
2022/01/30 07:05:24;;;;;;;;;4.50;3.00;;;;;;;;5094181;27;45883;-64
2022/01/30 07:07:49;;;;;;;;;5.00;3.00;;;;;;;;5094255;27;45739;-63
2022/01/30 07:10:14;;;;;;;;;3.00;2.00;;;;;;;;5095252;27;45436;-62
2022/01/30 07:12:40;;;;;;;;;3.25;2.00;;;;;;;;5094801;27;45394;-62
2022/01/30 07:15:05;;;;;;;;;3.00;3.00;;;;;;;;5078413;27;46147;-63
2022/01/30 07:17:30;;;;;;;;;5.50;4.00;;;;;;;;5094065;27;45329;-63
2022/01/30 07:19:56;;;;;;;;;3.75;3.75;;;;;;;;5092883;27;45477;-63
2022/01/30 07:22:21;;;;;;;;;4.75;4.00;;;;;;;;5094428;27;45380;-62
2022/01/30 07:24:46;;;;;;;;;2.75;2.75;;;;;;;;5093319;27;45471;-63
2022/01/30 07:27:11;;;;;;;;;3.00;2.00;;;;;;;;5077785;27;45531;-63
2022/01/30 07:29:36;;;;;;;;;5.75;3.75;;;;;;;;5094179;27;45773;-62
2022/01/30 07:32:02;;;;;;;;;4.25;2.50;;;;;;;;5075284;27;45361;-63
2022/01/30 07:34:27;;;;;;;;;2.50;1.50;;;;;;;;5093487;27;46514;-64
2022/01/30 07:36:56;;;;;;;;;3.25;3.25;;;;;;;;5093350;27;45470;-62
2022/01/30 07:39:21;;;;;;;;;3.75;3.00;;;;;;;;5095555;27;45831;-63
2022/01/30 07:41:47;;;;;;;;;7.00;3.75;;;;;;;;5096221;27;45404;-63
2022/01/30 07:44:12;;;;;;;;;3.75;3.00;;;;;;;;5095585;27;45682;-63
2022/01/30 07:46:37;;;;;;;;;4.00;3.75;;;;;;;;5093999;27;45401;-63
2022/01/30 07:49:02;;;;;;;;;3.00;3.00;;;;;;;;5094545;27;45480;-63
2022/01/30 07:51:28;;;;;;;;;3.25;3.00;;;;;;;;5094816;27;45380;-63
2022/01/30 07:53:53;;;;;;;;;5.75;3.00;;;;;;;;5076226;27;47862;-64
2022/01/30 07:56:18;;;;;;;;;3.75;2.25;;;;;;;;5073915;27;46521;-63
2022/01/30 07:58:43;;;;;;;;;11.50;5.00;;;;;;;;5094071;27;45432;-63
2022/01/30 08:01:09;;;;;;;;;3.00;2.50;;;;;;;;5093961;27;45217;-64
2022/01/30 08:03:34;;;;;;;;;4.00;3.00;;;;;;;;5093859;27;45633;-64
2022/01/30 08:05:59;;;;;;;;;3.00;2.75;;;;;;;;5096488;27;45429;-64
2022/01/30 08:08:24;;;;;;;;;3.00;3.00;;;;;;;;5094273;27;45460;-64
2022/01/30 08:10:49;;;;;;;;;4.50;2.75;;;;;;;;5092874;27;45254;-63
2022/01/30 08:13:16;;;;;;;;;7.50;3.25;;;;;;;;5094088;27;45448;-63
2022/01/30 08:15:42;;;;;;;;;3.00;1.75;;;;;;;;5074362;27;45582;-62
2022/01/30 08:18:07;;;;;;;;;6.25;2.25;;;;;;;;5096392;27;45726;-62
2022/01/30 08:20:34;;;;;;;;;3.00;3.00;;;;;;;;5093451;27;44886;-64
2022/01/30 08:23:01;;;;;;;;;2.50;2.50;;;;;;;;5088252;27;45929;-64
2022/01/30 08:25:26;;;;;;;;;3.25;3.25;;;;;;;;5093593;27;45560;-63
2022/01/30 08:27:52;;;;;;;;;3.00;3.00;;;;;;;;5075616;27;45468;-66
2022/01/30 08:30:17;;;;;;;;;4.00;3.00;;;;;;;;5093038;27;46647;-63
2022/01/30 08:32:43;;;;;;;;;7.50;3.75;;;;;;;;5072793;27;46403;-63
2022/01/30 08:35:10;;;;;;;;;15.75;10.50;;;;;;;;5073624;27;45587;-64
2022/01/30 08:37:35;;;;;;;;;22.25;18.50;;;;;;;;5074058;27;45407;-63
2022/01/30 08:40:11;;;;;;;;;23.00;19.50;;;;;;;;5069037;27;45346;-63
2022/01/30 08:42:36;;;;;;;;;50.50;40.25;;;;;;;;5074279;27;48722;-64
2022/01/30 08:45:03;;;;;;;;;46.25;38.25;;;;;;;;5094660;27;45527;-63
2022/01/30 08:47:28;;;;;;;;;32.00;30.50;;;;;;;;5092644;27;45901;-63
2022/01/30 08:49:53;;;;;;;;;16.00;11.50;;;;;;;;5074369;27;45360;-63
2022/01/30 08:52:19;;;;;;;;;16.00;10.50;;;;;;;;5092846;27;46256;-63
2022/01/30 08:54:53;;;;;;;;;12.75;10.75;;;;;;;;5093116;27;45532;-63
2022/01/30 08:57:19;;;;;;;;;2.50;1.25;;;;;;;;5094136;27;45361;-64
2022/01/30 08:59:44;;;;;;;;;20.75;15.25;;;;;;;;5093452;27;45388;-64
2022/01/30 09:02:09;;;;;;;;;3.00;3.00;;;;;;;;5091399;27;46679;-63
2022/01/30 09:04:35;;;;;;;;;4.50;3.25;;;;;;;;5080778;27;45403;-64
2022/01/30 09:07:00;;;;;;;;;6.50;4.75;;;;;;;;5080739;27;45505;-64
2022/01/30 09:09:25;;;;;;;;;4.50;3.25;;;;;;;;5091463;27;45426;-64
2022/01/30 09:11:50;;;;;;;;;5.50;5.00;;;;;;;;5091107;27;45721;-64
2022/01/30 09:14:16;;;;;;;;;4.00;3.00;;;;;;;;5073654;27;45410;-64
2022/01/30 09:16:42;;;;;;;;;3.50;3.50;;;;;;;;5093461;27;45437;-64
2022/01/30 09:19:07;;;;;;;;;5.00;4.00;;;;;;;;5093237;27;45400;-64
2022/01/30 09:21:32;;;;;;;;;8.00;6.67;;;;;;;;5074010;27;47686;-64
2022/01/30 09:23:58;;;;;;;;;7.00;4.33;;;;;;;;5085811;27;45320;-65
2022/01/30 09:26:23;;;;;;;;;11.25;10.25;;;;;;;;5076133;27;45658;-64
2022/01/30 09:28:48;;;;;;;;;3.67;3.00;;;;;;;;5089315;27;45570;-64
2022/01/30 09:31:14;;;;;;;;;9.00;3.75;;;;;;;;5081578;27;46376;-64
2022/01/30 09:33:39;;;;;;;;;6.00;3.00;;;;;;;;5090962;27;45390;-64
2022/01/30 09:36:05;;;;;;;;;5.00;3.33;;;;;;;;5092779;27;45387;-64
2022/01/30 09:38:30;;;;;;;;;5.00;3.67;;;;;;;;5089268;27;45496;-64
2022/01/30 09:40:56;;;;;;;;;2.67;2.67;;;;;;;;5087044;27;45660;-65
2022/01/30 09:43:22;;;;;;;;;3.00;3.00;;;;;;;;5087641;27;45314;-64
2022/01/30 09:45:47;;;;;;;;;7.00;4.33;;;;;;;;5065548;27;45685;-64
2022/01/30 09:48:12;;;;;;;;;3.67;3.67;;;;;;;;5094162;27;45419;-64
2022/01/30 09:50:39;;;;;;;;;7.67;6.67;;;;;;;;5090616;27;46322;-64
2022/01/30 09:53:04;;;;;;;;;3.00;2.67;;;;;;;;5072314;27;45519;-64
2022/01/30 09:55:29;;;;;;;;;8.00;4.00;;;;;;;;5072222;27;45427;-64
2022/01/30 09:57:55;;;;;;;;;6.00;5.00;;;;;;;;5090853;27;45403;-63
2022/01/30 10:00:20;;;;;;;;;3.00;3.00;;;;;;;;5074418;27;46509;-64
2022/01/30 10:02:45;;;;;;;;;4.67;3.00;;;;;;;;5088196;27;45428;-65
2022/01/30 10:05:11;;;;;;;;;3.33;3.00;;;;;;;;5087214;27;45459;-64
2022/01/30 10:07:45;;;;;;;;;4.67;3.00;;;;;;;;5090760;27;45581;-65
2022/01/30 10:10:12;;;;;;;;;7.00;4.67;;;;;;;;5088619;27;46554;-64
2022/01/30 10:12:57;;;;;;;;;2.67;2.00;;;;;;;;5086936;27;46154;-64
2022/01/30 10:15:22;;;;;;;;;3.67;3.67;;;;;;;;5091254;27;45473;-64
2022/01/30 10:17:48;;;;;;;;;1.33;1.33;;;;;;;;5072673;27;45596;-64
2022/01/30 10:20:15;;;;;;;;;4.67;3.67;;;;;;;;5082404;27;46426;-64
2022/01/30 10:22:47;;;;;;;;;7.33;4.67;;;;;;;;5080266;27;45686;-64
2022/01/30 10:25:17;;;;;;;;;3.00;3.00;;;;;;;;5084193;27;45448;-63
2022/01/30 10:27:42;;;;;;;;;4.00;4.00;;;;;;;;5091506;27;45479;-64
2022/01/30 10:30:07;;;;;;;;;4.67;3.00;;;;;;;;5093816;27;46566;-63
2022/01/30 10:32:33;;;;;;;;;4.33;4.33;;;;;;;;5087559;27;45351;-64
2022/01/30 10:35:03;;;;;;;;;6.33;6.00;;;;;;;;5083391;27;45576;-63
2022/01/30 10:37:28;;;;;;;;;7.00;4.33;;;;;;;;5063197;27;45425;-66
2022/01/30 10:40:04;;;;;;;;;6.00;3.33;;;;;;;;5089008;27;46269;-63
2022/01/30 10:42:30;;;;;;;;;6.00;5.33;;;;;;;;5081858;27;45440;-64
2022/01/30 10:44:55;;;;;;;;;13.00;10.67;;;;;;;;5094750;27;45408;-64
2022/01/30 10:47:21;;;;;;;;;12.50;10.00;;;;;;;;5076077;27;45338;-64
2022/01/30 10:49:46;;;;;;;;;5.00;4.67;;;;;;;;5077213;27;47700;-64
2022/01/30 10:52:13;;;;;;;;;8.33;5.67;;;;;;;;5095486;27;45328;-64
2022/01/30 10:54:38;;;;;;;;;5.00;4.00;;;;;;;;5077358;27;45381;-64
2022/01/30 10:57:08;;;;;;;;;3.33;3.33;;;;;;;;5091439;27;45558;-64
2022/01/30 10:59:34;;;;;;;;;5.00;3.67;;;;;;;;5073431;27;47617;-65
2022/01/30 11:02:10;;;;;;;;;8.00;7.50;;;;;;;;5073392;27;45558;-64
2022/01/30 11:04:36;;;;;;;;;3.33;3.33;;;;;;;;5076410;27;45575;-65
2022/01/30 11:07:02;;;;;;;;;6.00;4.00;;;;;;;;5091667;27;45545;-64
2022/01/30 11:09:33;;;;;;;;;10.50;8.50;;;;;;;;5089685;27;46740;-64
2022/01/30 11:12:02;;;;;;;;;8.00;6.67;;;;;;;;5086624;27;45521;-64
2022/01/30 11:15:17;;;;;;;;;8.67;6.00;;;;;;;;5087494;27;45333;-66
2022/01/30 11:17:22;;;;;;;;;6.00;5.00;;;;;;;;5085447;27;45492;-64
2022/01/30 11:19:49;;;;;;;;;7.00;5.25;;;;;;;;5094154;27;46168;-67
2022/01/30 11:22:15;;;;;;;;;10.00;6.33;;;;;;;;5094600;27;45527;-68
2022/01/30 11:24:59;;;;;;;;;5.75;4.75;;;;;;;;5075858;27;45494;-64
2022/01/30 11:27:24;;;;;;;;;5.00;5.00;;;;;;;;5071957;27;45683;-65
2022/01/30 11:29:50;;;;;;;;;6.75;5.50;;;;;;;;5095744;27;46215;-63
2022/01/30 11:32:16;;;;;;;;;6.50;4.00;;;;;;;;5095515;27;45369;-63
2022/01/30 11:34:42;;;;;;;;;7.50;6.25;;;;;;;;5093019;27;45351;-61
2022/01/30 11:37:08;;;;;;;;;8.75;8.75;;;;;;;;5092944;27;45471;-62
2022/01/30 11:39:35;;;;;;;;;5.75;5.75;;;;;;;;5093627;27;45760;-62
2022/01/30 11:42:12;;;;;;;;;10.50;7.25;;;;;;;;5096313;27;45526;-62
2022/01/30 11:44:40;;;;;;;;;10.75;8.50;;;;;;;;5075813;27;45602;-63
2022/01/30 11:47:07;;;;;;;;;6.75;6.25;;;;;;;;5093858;27;45349;-62
2022/01/30 11:49:43;;;;;;;;;7.25;6.00;;;;;;;;5093853;27;47021;-62
2022/01/30 11:52:10;;;;;;;;;10.50;8.75;;;;;;;;5074108;27;45758;-66
2022/01/30 11:54:45;;;;;;;;;9.00;7.50;;;;;;;;5084517;27;45315;-63
2022/01/30 11:57:22;;;;;;;;;4.75;4.75;;;;;;;;5086532;27;46031;-64
2022/01/30 11:59:48;;;;;;;;;6.25;5.75;;;;;;;;5092383;27;46579;-63
2022/01/30 12:02:20;;;;;;;;;6.50;6.25;;;;;;;;5091019;27;45788;-66
2022/01/30 12:04:57;;;;;;;;;8.00;5.50;;;;;;;;5092928;27;45407;-65
2022/01/30 12:07:38;;;;;;;;;7.75;7.50;;;;;;;;5094293;27;45403;-64
2022/01/30 12:10:16;;;;;;;;;10.50;8.50;;;;;;;;5094219;27;45343;-64
2022/01/30 12:12:47;;;;;;;;;8.00;7.00;;;;;;;;5094231;27;45547;-63
2022/01/30 12:15:31;;;;;;;;;10.00;8.75;;;;;;;;5092154;27;45446;-65
2022/01/30 12:17:56;;;;;;;;;9.25;8.75;;;;;;;;5090223;27;45753;-62
2022/01/30 12:20:22;;;;;;;;;9.50;8.00;;;;;;;;5086224;27;46051;-63
2022/01/30 12:22:48;;;;;;;;;5.50;4.00;;;;;;;;5091010;27;45402;-63
2022/01/30 12:25:23;;;;;;;;;10.75;5.00;;;;;;;;5093288;27;45429;-63
2022/01/30 12:27:56;;;;;;;;;9.50;8.25;;;;;;;;5086387;27;45514;-62
2022/01/30 12:30:30;;;;;;;;;8.25;7.25;;;;;;;;5098851;27;47588;-62
2022/01/30 12:32:55;;;;;;;;;9.00;7.50;;;;;;;;5088288;27;45883;-62
2022/01/30 12:35:20;;;;;;;;;10.75;8.75;;;;;;;;5096459;27;45376;-63
2022/01/30 12:37:46;;;;;;;;;9.00;6.00;;;;;;;;5103548;27;45309;-63
2022/01/30 12:40:11;;;;;;;;;5.75;5.00;;;;;;;;5094191;27;47595;-63
2022/01/30 12:42:36;;;;;;;;;5.33;5.33;;;;;;;;5099993;27;45428;-63
2022/01/30 12:45:03;;;;;;;;;4.00;4.00;;;;;;;;5087888;27;45423;-63
2022/01/30 12:47:28;;;;;;;;;5.67;5.00;;;;;;;;5094885;27;45475;-63
2022/01/30 12:49:58;;;;;;;;;5.67;4.67;;;;;;;;5081408;27;46362;-63
2022/01/30 12:54:56;;;;;;;;;4.67;4.00;;;;;;;;5102504;27;45462;-63
2022/01/30 12:57:21;;;;;;;;;4.33;4.33;;;;;;;;5080793;27;45477;-63
2022/01/30 12:59:51;;;;;;;;;7.25;6.00;;;;;;;;5073193;27;48290;-63
2022/01/30 13:02:16;;;;;;;;;6.00;6.00;;;;;;;;5080550;27;45531;-63
2022/01/30 13:04:41;;;;;;;;;5.33;5.33;;;;;;;;5093568;27;45319;-63
2022/01/30 13:07:11;;;;;;;;;9.00;7.75;;;;;;;;5104893;27;45531;-63
2022/01/30 13:09:36;;;;;;;;;16.25;12.75;;;;;;;;5095636;27;45377;-63
2022/01/30 13:12:12;;;;;;;;;8.50;7.25;;;;;;;;5095032;27;45459;-63
2022/01/30 13:14:38;;;;;;;;;7.25;5.00;;;;;;;;5092233;27;45462;-63
2022/01/30 13:17:03;;;;;;;;;7.33;4.33;;;;;;;;5093885;27;45495;-63
2022/01/30 13:19:34;;;;;;;;;8.00;5.00;;;;;;;;5103488;27;47988;-63
2022/01/30 13:22:00;;;;;;;;;6.33;6.00;;;;;;;;5089639;27;45203;-62
2022/01/30 13:24:26;;;;;;;;;4.33;4.33;;;;;;;;5087060;27;45488;-63
2022/01/30 13:27:01;;;;;;;;;8.50;8.50;;;;;;;;5073416;27;45552;-63
2022/01/30 13:29:27;;;;;;;;;4.33;4.33;;;;;;;;5078529;27;48573;-62
2022/01/30 13:31:54;;;;;;;;;5.00;5.00;;;;;;;;5082615;27;45828;-61
2022/01/30 13:34:24;;;;;;;;;7.67;6.33;;;;;;;;5094850;27;45484;-64
2022/01/30 13:36:54;;;;;;;;;7.00;6.75;;;;;;;;5097066;27;45423;-63
2022/01/30 13:39:26;;;;;;;;;11.50;7.00;;;;;;;;5099251;27;45356;-63
2022/01/30 13:42:01;;;;;;;;;5.33;4.33;;;;;;;;5099402;27;45333;-63
2022/01/30 13:44:53;;;;;;;;;9.00;7.00;;;;;;;;5095722;27;45444;-62
2022/01/30 13:47:21;;;;;;;;;10.00;9.00;;;;;;;;5095772;27;45391;-63
2022/01/30 13:49:50;;;;;;;;;9.00;7.50;;;;;;;;5082551;27;46525;-62
2022/01/30 13:52:16;;;;;;;;;29.25;23.50;;;;;;;;5093195;27;45553;-63
2022/01/30 13:54:41;;;;;;;;;29.25;26.00;;;;;;;;5102690;27;45378;-63
2022/01/30 13:57:08;;;;;;;;;21.75;20.50;;;;;;;;5097074;27;45499;-63
2022/01/30 13:59:34;;;;;;;;;19.75;18.50;;;;;;;;5053000;27;47966;-63
2022/01/30 14:02:02;;;;;;;;;7.50;6.00;;;;;;;;5068768;27;46105;-62
2022/01/30 14:04:28;;;;;;;;;10.00;8.00;;;;;;;;5087853;27;45484;-63
2022/01/30 14:06:55;;;;;;;;;26.00;24.75;;;;;;;;5101434;27;45479;-62
2022/01/30 14:09:25;;;;;;;;;15.50;14.25;;;;;;;;5098158;27;46513;-62
2022/01/30 14:12:02;;;;;;;;;24.25;23.75;;;;;;;;5098770;27;45923;-63
2022/01/30 14:14:27;;;;;;;;;13.00;13.00;;;;;;;;5097756;27;45781;-62
2022/01/30 14:16:59;;;;;;;;;8.00;8.00;;;;;;;;5096334;27;45574;-62
2022/01/30 14:19:25;;;;;;;;;7.25;7.25;;;;;;;;5107143;27;46028;-63
2022/01/30 14:21:56;;;;;;;;;8.25;7.00;;;;;;;;5095187;27;46033;-61
2022/01/30 14:24:27;;;;;;;;;9.75;7.75;;;;;;;;5106883;27;45470;-61
2022/01/30 14:27:09;;;;;;;;;9.00;6.75;;;;;;;;5099473;27;45589;-61
2022/01/30 14:29:34;;;;;;;;;5.00;5.00;;;;;;;;5092633;27;45500;-61
2022/01/30 14:32:05;;;;;;;;;7.25;6.50;;;;;;;;5094073;27;45519;-63
2022/01/30 14:34:30;;;;;;;;;5.33;4.00;;;;;;;;5075694;27;45369;-63
2022/01/30 14:37:01;;;;;;;;;7.50;6.00;;;;;;;;5093996;27;45875;-63
2022/01/30 14:39:28;;;;;;;;;5.33;5.00;;;;;;;;5092848;27;46593;-63
2022/01/30 14:41:53;;;;;;;;;6.50;6.50;;;;;;;;5074797;27;45488;-63
2022/01/30 14:44:19;;;;;;;;;11.25;10.25;;;;;;;;5072964;27;45428;-63
2022/01/30 14:46:44;;;;;;;;;13.00;9.00;;;;;;;;5088695;27;45463;-63
2022/01/30 14:49:10;;;;;;;;;6.25;6.25;;;;;;;;5088666;27;46037;-64
2022/01/30 14:51:35;;;;;;;;;6.50;5.50;;;;;;;;5074870;27;45601;-62
2022/01/30 14:54:00;;;;;;;;;7.25;6.00;;;;;;;;5095053;27;45363;-63
2022/01/30 14:56:25;;;;;;;;;5.75;4.50;;;;;;;;5090586;27;45539;-62
2022/01/30 14:58:50;;;;;;;;;10.00;9.00;;;;;;;;5089107;27;46520;-62
2022/01/30 15:01:16;;;;;;;;;9.00;9.00;;;;;;;;5091460;27;45501;-62
2022/01/30 15:03:41;;;;;;;;;8.25;8.25;;;;;;;;5086187;27;45490;-62
2022/01/30 15:06:06;;;;;;;;;9.75;9.25;;;;;;;;5086516;27;45502;-62
2022/01/30 15:08:31;;;;;;;;;8.25;8.25;;;;;;;;5079122;27;45686;-62
2022/01/30 15:10:56;;;;;;;;;10.25;10.25;;;;;;;;5087649;27;46234;-62
2022/01/30 15:13:23;;;;;;;;;6.25;6.25;;;;;;;;5088735;27;45407;-62
2022/01/30 15:15:49;;;;;;;;;9.75;7.00;;;;;;;;5083161;27;46022;-62
2022/01/30 15:18:23;;;;;;;;;9.75;8.75;;;;;;;;5089268;27;46594;-62
2022/01/30 15:20:51;;;;;;;;;7.25;5.75;;;;;;;;5092148;27;46635;-61
2022/01/30 15:23:17;;;;;;;;;6.50;5.50;;;;;;;;5068381;28;45619;-62
2022/01/30 15:25:42;;;;;;;;;5.75;4.50;;;;;;;;5071846;28;45419;-62
2022/01/30 15:28:08;;;;;;;;;5.75;4.00;;;;;;;;5053554;28;45484;-62
2022/01/30 15:30:33;;;;;;;;;5.25;4.50;;;;;;;;5074291;28;48071;-62
2022/01/30 15:32:58;;;;;;;;;6.50;4.25;;;;;;;;5074071;28;45423;-62